createdAt,value
2018-11-04T00:00:22.650Z,2.62
2018-11-04T00:02:54.033Z,2.48
2018-11-04T00:05:25.093Z,2.41
2018-11-04T00:07:56.531Z,2.38
2018-11-04T00:10:27.577Z,2.42
2018-11-04T00:12:58.669Z,2.50
2018-11-04T00:15:29.731Z,2.47
2018-11-04T00:18:00.761Z,2.38
2018-11-04T00:20:32.442Z,2.43
2018-11-04T00:23:03.591Z,2.49
2018-11-04T00:25:34.619Z,2.51
2018-11-04T00:28:05.765Z,2.53
2018-11-04T00:30:36.802Z,2.47
2018-11-04T00:33:07.874Z,2.46
2018-11-04T00:35:38.923Z,2.49
2018-11-04T00:38:10.347Z,2.52
2018-11-04T00:40:41.379Z,2.45
2018-11-04T00:43:12.440Z,2.35
2018-11-04T00:45:43.487Z,2.30
2018-11-04T00:48:14.630Z,2.32
2018-11-04T00:50:45.735Z,2.31
2018-11-04T00:53:21.279Z,2.33
2018-11-04T00:55:56.204Z,2.34
2018-11-04T00:58:27.671Z,2.37
2018-11-04T01:00:59.441Z,2.39
2018-11-04T01:03:30.489Z,2.42
2018-11-04T01:06:01.503Z,2.50
2018-11-04T01:08:32.542Z,2.50
2018-11-04T01:11:03.587Z,2.42
2018-11-04T01:13:37.165Z,2.32
2018-11-04T01:16:08.616Z,2.28
2018-11-04T01:18:39.646Z,2.24
2018-11-04T01:21:10.773Z,2.21
2018-11-04T01:23:41.757Z,2.27
2018-11-04T01:26:12.798Z,2.24
2018-11-04T01:28:44.134Z,2.22
2018-11-04T01:31:15.157Z,2.22
2018-11-04T01:33:46.558Z,2.24
2018-11-04T01:36:18.596Z,2.27
2018-11-04T01:38:49.700Z,2.22
2018-11-04T01:41:20.719Z,2.23
2018-11-04T01:43:52.875Z,2.29
2018-11-04T01:46:24.334Z,2.20
2018-11-04T01:48:55.370Z,2.13
2018-11-04T01:51:28.355Z,2.12
2018-11-04T01:53:59.497Z,2.12
2018-11-04T01:56:30.819Z,2.12
2018-11-04T01:59:01.897Z,2.15
2018-11-04T02:01:33.072Z,2.19
2018-11-04T02:04:04.159Z,2.24
2018-11-04T02:06:35.256Z,2.30
2018-11-04T02:09:08.447Z,2.31
2018-11-04T02:11:39.660Z,2.24
2018-11-04T02:14:10.750Z,2.27
2018-11-04T02:16:41.833Z,2.34
2018-11-04T02:19:13.250Z,2.38
2018-11-04T02:21:44.280Z,2.37
2018-11-04T02:24:15.448Z,2.36
2018-11-04T02:26:46.889Z,2.31
2018-11-04T02:29:18.000Z,2.30
2018-11-04T02:31:49.364Z,2.27
2018-11-04T02:34:20.465Z,2.27
2018-11-04T02:36:51.538Z,2.26
2018-11-04T02:39:22.580Z,2.25
2018-11-04T02:41:53.630Z,2.21
2018-11-04T02:44:24.678Z,2.22
2018-11-04T02:46:56.259Z,2.23
2018-11-04T02:49:27.277Z,2.21
2018-11-04T02:51:58.303Z,2.15
2018-11-04T02:54:29.366Z,2.09
2018-11-04T02:57:00.465Z,2.08
2018-11-04T02:59:31.544Z,2.07
2018-11-04T03:02:02.662Z,2.08
2018-11-04T03:04:33.705Z,2.10
2018-11-04T03:07:05.133Z,2.12
2018-11-04T03:09:36.181Z,2.08
2018-11-04T03:12:07.409Z,2.07
2018-11-04T03:14:38.564Z,2.04
2018-11-04T03:17:09.624Z,2.11
2018-11-04T03:19:40.786Z,2.18
2018-11-04T03:22:11.855Z,2.21
2018-11-04T03:24:43.413Z,2.24
2018-11-04T03:27:14.435Z,2.25
2018-11-04T03:29:45.652Z,2.30
2018-11-04T03:32:16.946Z,2.32
2018-11-04T03:34:48.600Z,2.32
2018-11-04T03:37:19.624Z,2.35
2018-11-04T03:39:50.745Z,2.38
2018-11-04T03:42:21.771Z,2.37
2018-11-04T03:44:52.874Z,2.39
2018-11-04T03:47:23.947Z,2.40
2018-11-04T03:49:55.254Z,2.38
2018-11-04T03:52:26.297Z,2.43
2018-11-04T03:54:57.438Z,2.44
2018-11-04T03:57:28.893Z,2.40
2018-11-04T03:59:59.942Z,2.35
2018-11-04T04:02:31.030Z,2.41
2018-11-04T04:05:02.124Z,2.46
2018-11-04T04:07:34.613Z,2.49
2018-11-04T04:10:06.514Z,2.50
2018-11-04T04:12:37.707Z,2.49
2018-11-04T04:15:10.901Z,2.52
2018-11-04T04:17:42.172Z,2.53
2018-11-04T04:20:13.256Z,2.53
2018-11-04T04:22:44.610Z,2.55
2018-11-04T04:25:19.269Z,2.60
2018-11-04T04:27:51.015Z,2.62
2018-11-04T04:30:22.090Z,2.64
2018-11-04T04:32:53.171Z,2.62
2018-11-04T04:35:24.588Z,2.69
2018-11-04T04:37:55.936Z,2.74
2018-11-04T04:40:26.936Z,2.77
2018-11-04T04:42:57.976Z,2.78
2018-11-04T04:45:29.052Z,2.82
2018-11-04T04:48:00.124Z,2.84
2018-11-04T04:50:31.464Z,2.88
2018-11-04T04:53:02.511Z,2.93
2018-11-04T04:55:33.722Z,2.93
2018-11-04T04:58:04.811Z,2.98
2018-11-04T05:00:35.800Z,3.01
2018-11-04T05:03:06.909Z,3.05
2018-11-04T05:05:38.276Z,3.06
2018-11-04T05:08:09.402Z,3.09
2018-11-04T05:10:42.142Z,3.15
2018-11-04T05:13:13.245Z,3.18
2018-11-04T05:15:44.393Z,3.20
2018-11-04T05:18:16.618Z,3.25
2018-11-04T05:20:47.693Z,3.31
2018-11-04T05:23:18.767Z,3.36
2018-11-04T05:25:50.122Z,3.39
2018-11-04T05:28:21.217Z,3.43
2018-11-04T05:30:52.271Z,3.46
2018-11-04T05:33:24.103Z,3.47
2018-11-04T05:35:56.289Z,3.52
2018-11-04T05:38:27.649Z,3.48
2018-11-04T05:40:58.688Z,3.57
2018-11-04T05:43:30.072Z,3.59
2018-11-04T05:46:01.434Z,3.58
2018-11-04T05:48:32.952Z,3.66
2018-11-04T05:51:04.496Z,3.66
2018-11-04T05:53:38.508Z,3.71
2018-11-04T05:56:10.335Z,3.70
2018-11-04T05:58:41.408Z,3.77
2018-11-04T06:01:12.539Z,3.80
2018-11-04T06:03:43.573Z,3.85
2018-11-04T06:06:14.636Z,3.88
2018-11-04T06:08:45.664Z,3.90
2018-11-04T06:11:16.748Z,3.95
2018-11-04T06:13:48.152Z,3.94
2018-11-04T06:16:19.249Z,4.00
2018-11-04T06:18:50.582Z,3.96
2018-11-04T06:21:22.209Z,4.08
2018-11-04T06:23:53.582Z,4.08
2018-11-04T06:26:25.021Z,4.14
2018-11-04T06:28:56.102Z,4.18
2018-11-04T06:31:27.526Z,4.18
2018-11-04T06:33:58.556Z,4.16
2018-11-04T06:36:30.076Z,4.18
2018-11-04T06:39:01.124Z,4.24
2018-11-04T06:41:32.513Z,4.26
2018-11-04T06:44:03.540Z,4.32
2018-11-04T06:46:34.634Z,4.33
2018-11-04T06:49:06.396Z,4.36
2018-11-04T06:51:37.574Z,4.40
2018-11-04T06:54:08.597Z,4.44
2018-11-04T06:56:40.012Z,4.47
2018-11-04T06:59:11.081Z,4.47
2018-11-04T07:01:42.141Z,4.52
2018-11-04T07:04:28.067Z,4.53
2018-11-04T07:06:59.407Z,4.57
2018-11-04T07:09:30.475Z,4.57
2018-11-04T07:12:02.277Z,4.59
2018-11-04T07:14:33.408Z,4.60
2018-11-04T07:17:04.627Z,4.60
2018-11-04T07:19:36.374Z,4.65
2018-11-04T07:22:07.414Z,4.71
2018-11-04T07:24:38.891Z,4.72
2018-11-04T07:27:09.938Z,4.75
2018-11-04T07:29:41.636Z,4.74
2018-11-04T07:32:12.770Z,4.79
2018-11-04T07:34:43.722Z,4.79
2018-11-04T07:37:14.843Z,4.85
2018-11-04T07:39:45.929Z,4.90
2018-11-04T07:42:17.032Z,4.90
2018-11-04T07:44:48.089Z,4.93
2018-11-04T07:47:19.176Z,4.95
2018-11-04T07:49:50.622Z,4.96
2018-11-04T07:52:21.797Z,4.99
2018-11-04T07:54:52.733Z,5.03
2018-11-04T07:57:23.838Z,5.04
2018-11-04T07:59:54.893Z,5.06
2018-11-04T08:02:25.987Z,5.10
2018-11-04T08:04:57.029Z,5.14
2018-11-04T08:07:28.435Z,5.19
2018-11-04T08:09:59.510Z,5.26
2018-11-04T08:12:31.794Z,5.27
2018-11-04T08:15:04.842Z,5.28
2018-11-04T08:17:39.766Z,5.30
2018-11-04T08:20:13.441Z,5.33
2018-11-04T08:22:42.898Z,5.36
2018-11-04T08:25:14.337Z,5.43
2018-11-04T08:27:45.589Z,5.45
2018-11-04T08:30:23.637Z,5.47
2018-11-04T08:32:54.864Z,5.53
2018-11-04T08:35:25.945Z,5.60
2018-11-04T08:37:56.996Z,5.64
2018-11-04T08:40:29.270Z,5.68
2018-11-04T08:43:00.314Z,5.74
2018-11-04T08:45:31.999Z,5.78
2018-11-04T08:48:03.188Z,5.82
2018-11-04T08:50:34.299Z,5.83
2018-11-04T08:53:05.360Z,5.88
2018-11-04T08:55:36.438Z,5.87
2018-11-04T08:58:07.565Z,5.95
2018-11-04T09:00:38.892Z,5.99
2018-11-04T09:03:10.051Z,6.01
2018-11-04T09:05:41.418Z,6.01
2018-11-04T09:08:12.925Z,6.03
2018-11-04T09:10:43.905Z,6.07
2018-11-04T09:13:15.161Z,6.09
2018-11-04T09:15:46.272Z,6.10
2018-11-04T09:18:18.509Z,6.18
2018-11-04T09:20:49.968Z,6.22
2018-11-04T09:23:21.067Z,6.26
2018-11-04T09:25:52.092Z,6.28
2018-11-04T09:28:24.603Z,6.32
2018-11-04T09:30:58.180Z,6.35
2018-11-04T09:33:30.648Z,6.34
2018-11-04T09:36:03.343Z,6.40
2018-11-04T09:38:37.247Z,6.42
2018-11-04T09:41:06.919Z,6.50
2018-11-04T09:43:38.141Z,6.52
2018-11-04T09:46:12.364Z,6.60
2018-11-04T09:48:43.701Z,6.64
2018-11-04T09:51:18.836Z,6.67
2018-11-04T09:53:50.211Z,6.73
2018-11-04T09:56:23.319Z,6.77
2018-11-04T09:58:54.460Z,6.83
2018-11-04T10:01:25.580Z,6.90
2018-11-04T10:03:56.632Z,6.93
2018-11-04T10:06:28.686Z,7.00
2018-11-04T10:09:00.163Z,7.04
2018-11-04T10:11:31.245Z,7.05
2018-11-04T10:14:03.007Z,7.10
2018-11-04T10:16:34.172Z,7.16
2018-11-04T10:19:05.313Z,7.20
2018-11-04T10:21:36.294Z,7.22
2018-11-04T10:24:07.540Z,7.28
2018-11-04T10:26:38.618Z,7.32
2018-11-04T10:29:09.930Z,7.36
2018-11-04T10:31:41.367Z,7.37
2018-11-04T10:34:12.404Z,7.41
2018-11-04T10:36:43.929Z,7.48
2018-11-04T10:39:15.255Z,7.56
2018-11-04T10:41:49.854Z,7.59
2018-11-04T10:44:23.779Z,7.61
2018-11-04T10:46:54.988Z,7.66
2018-11-04T10:49:26.259Z,7.69
2018-11-04T10:51:57.387Z,7.74
2018-11-04T10:54:30.886Z,7.80
2018-11-04T10:57:02.445Z,7.86
2018-11-04T10:59:41.499Z,7.86
2018-11-04T11:02:12.445Z,7.92
2018-11-04T11:04:50.672Z,7.96
2018-11-04T11:07:21.742Z,8.01
2018-11-04T11:09:53.082Z,8.02
2018-11-04T11:12:24.320Z,8.10
2018-11-04T11:14:55.373Z,8.14
2018-11-04T11:17:30.958Z,8.19
2018-11-04T11:20:02.070Z,8.26
2018-11-04T11:22:33.481Z,8.30
2018-11-04T11:25:04.522Z,8.38
2018-11-04T11:27:35.567Z,8.51
2018-11-04T11:30:12.906Z,8.55
2018-11-04T11:32:44.206Z,8.57
2018-11-04T11:35:15.748Z,8.62
2018-11-04T11:37:46.882Z,8.65
2018-11-04T11:40:18.386Z,8.68
2018-11-04T11:42:51.497Z,8.75
2018-11-04T11:45:22.883Z,8.77
2018-11-04T11:47:54.237Z,8.84
2018-11-04T11:50:26.252Z,8.88
2018-11-04T11:52:57.329Z,8.91
2018-11-04T11:55:28.404Z,8.99
2018-11-04T11:57:59.480Z,9.04
2018-11-04T12:00:30.783Z,9.11
2018-11-04T12:03:08.758Z,9.13
2018-11-04T12:05:39.826Z,9.20
2018-11-04T12:08:10.900Z,9.25
2018-11-04T12:10:42.031Z,9.32
2018-11-04T12:13:15.234Z,9.36
2018-11-04T12:15:46.969Z,9.44
2018-11-04T12:18:17.953Z,9.51
2018-11-04T12:20:48.957Z,9.56
2018-11-04T12:23:20.543Z,9.63
2018-11-04T12:25:55.870Z,9.65
2018-11-04T12:28:26.960Z,9.73
2018-11-04T12:31:01.481Z,9.82
2018-11-04T12:33:33.715Z,9.85
2018-11-04T12:36:06.901Z,9.88
2018-11-04T12:38:38.182Z,9.91
2018-11-04T12:41:09.353Z,9.97
2018-11-04T12:43:41.613Z,10.01
2018-11-04T12:46:13.453Z,10.04
2018-11-04T12:48:44.704Z,10.11
2018-11-04T12:51:16.466Z,10.19
2018-11-04T12:53:47.492Z,10.23
2018-11-04T12:56:18.630Z,10.28
2018-11-04T12:58:49.838Z,10.32
2018-11-04T13:01:20.928Z,10.33
2018-11-04T13:03:51.963Z,10.41
2018-11-04T13:06:23.081Z,10.47
2018-11-04T13:08:57.264Z,10.47
2018-11-04T13:11:32.518Z,10.57
2018-11-04T13:14:05.470Z,10.63
2018-11-04T13:16:36.652Z,10.69
2018-11-04T13:19:07.845Z,10.76
2018-11-04T13:21:44.871Z,10.83
2018-11-04T13:24:18.504Z,10.90
2018-11-04T13:26:52.126Z,10.97
2018-11-04T13:29:25.566Z,11.05
2018-11-04T13:31:59.615Z,11.06
2018-11-04T13:34:30.516Z,11.09
2018-11-04T13:37:01.563Z,11.12
2018-11-04T13:39:32.970Z,11.13
2018-11-04T13:42:04.131Z,11.17
2018-11-04T13:44:35.304Z,11.20
2018-11-04T13:47:07.619Z,11.21
2018-11-04T13:49:38.981Z,11.23
2018-11-04T13:52:10.017Z,11.24
2018-11-04T13:54:41.104Z,11.26
2018-11-04T13:57:12.168Z,11.24
2018-11-04T13:59:43.390Z,11.24
2018-11-04T14:02:16.937Z,11.25
2018-11-04T14:04:47.998Z,11.27
2018-11-04T14:07:19.049Z,11.28
2018-11-04T14:09:51.686Z,11.33
2018-11-04T14:12:24.636Z,11.34
2018-11-04T14:14:56.345Z,11.29
2018-11-04T14:17:27.377Z,11.34
2018-11-04T14:19:58.520Z,11.34
2018-11-04T14:22:29.944Z,11.38
2018-11-04T14:25:00.936Z,11.41
2018-11-04T14:27:32.415Z,11.44
2018-11-04T14:30:03.805Z,11.46
2018-11-04T14:32:35.295Z,11.50
2018-11-04T14:35:07.434Z,11.55
2018-11-04T14:37:39.605Z,11.57
2018-11-04T14:40:13.324Z,11.59
2018-11-04T14:42:45.551Z,11.56
2018-11-04T14:45:16.644Z,11.55
2018-11-04T14:47:47.708Z,11.63
2018-11-04T14:50:20.471Z,11.66
2018-11-04T14:52:52.182Z,11.72
2018-11-04T14:55:23.165Z,11.77
2018-11-04T14:57:54.374Z,11.83
2018-11-04T15:00:25.468Z,11.88
2018-11-04T15:02:56.512Z,11.91
2018-11-04T15:05:28.205Z,11.93
2018-11-04T15:07:59.359Z,11.92
2018-11-04T15:10:30.454Z,11.94
2018-11-04T15:13:01.546Z,11.93
2018-11-04T15:15:32.904Z,11.93
2018-11-04T15:18:03.974Z,11.95
2018-11-04T15:20:35.063Z,11.92
2018-11-04T15:23:06.149Z,11.96
2018-11-04T15:25:37.572Z,12.01
2018-11-04T15:28:08.731Z,12.00
2018-11-04T15:30:40.170Z,12.01
2018-11-04T15:33:11.234Z,12.00
2018-11-04T15:35:42.316Z,12.00
2018-11-04T15:38:13.417Z,12.03
2018-11-04T15:40:44.651Z,12.03
2018-11-04T15:43:15.595Z,12.04
2018-11-04T15:45:49.500Z,12.04
2018-11-04T15:48:20.622Z,12.08
2018-11-04T15:50:52.031Z,12.09
2018-11-04T15:53:23.102Z,12.09
2018-11-04T15:55:54.555Z,12.09
2018-11-04T15:58:25.606Z,12.13
2018-11-04T16:00:56.680Z,12.10
2018-11-04T16:03:28.115Z,12.11
2018-11-04T16:05:59.308Z,12.11
2018-11-04T16:08:30.349Z,12.10
2018-11-04T16:11:01.888Z,12.05
2018-11-04T16:13:32.970Z,12.05
2018-11-04T16:16:04.065Z,12.04
2018-11-04T16:18:35.210Z,12.02
2018-11-04T16:21:06.565Z,12.02
2018-11-04T16:23:37.817Z,11.99
2018-11-04T16:26:08.934Z,11.98
2018-11-04T16:28:39.981Z,11.95
2018-11-04T16:31:11.357Z,11.92
2018-11-04T16:33:43.200Z,11.95
2018-11-04T16:36:14.253Z,11.91
2018-11-04T16:38:45.658Z,11.91
2018-11-04T16:41:16.799Z,11.91
2018-11-04T16:43:47.964Z,11.93
2018-11-04T16:46:18.954Z,11.93
2018-11-04T16:48:49.988Z,11.93
2018-11-04T16:51:21.049Z,11.91
2018-11-04T16:53:53.693Z,11.89
2018-11-04T16:56:24.877Z,11.92
2018-11-04T16:58:56.073Z,11.88
2018-11-04T17:01:27.183Z,11.89
2018-11-04T17:03:58.404Z,11.86
2018-11-04T17:06:29.860Z,11.89
2018-11-04T17:09:00.869Z,11.90
2018-11-04T17:11:32.126Z,11.91
2018-11-04T17:14:03.064Z,11.92
2018-11-04T17:16:34.184Z,11.88
2018-11-04T17:19:05.228Z,11.85
2018-11-04T17:21:36.281Z,11.85
2018-11-04T17:24:08.034Z,11.82
2018-11-04T17:26:39.336Z,11.83
2018-11-04T17:29:11.179Z,11.84
2018-11-04T17:31:47.143Z,11.82
2018-11-04T17:37:11.709Z,11.88
2018-11-04T17:39:43.379Z,11.87
2018-11-04T17:42:14.705Z,11.86
2018-11-04T17:44:46.247Z,11.86
2018-11-04T17:47:17.415Z,11.87
2018-11-04T17:49:48.854Z,11.87
2018-11-04T17:52:21.613Z,11.86
2018-11-04T17:54:52.722Z,11.87
2018-11-04T17:57:28.744Z,11.86
2018-11-04T18:00:00.174Z,11.82
2018-11-04T18:02:31.323Z,11.84
2018-11-04T18:05:02.445Z,11.85
2018-11-04T18:07:36.824Z,11.86
2018-11-04T18:10:08.210Z,11.85
2018-11-04T18:12:39.338Z,11.81
2018-11-04T18:15:11.414Z,11.78
2018-11-04T18:17:42.830Z,11.79
2018-11-04T18:20:14.197Z,11.77
2018-11-04T18:22:45.596Z,11.76
2018-11-04T18:25:17.077Z,11.77
2018-11-04T18:27:48.360Z,11.76
2018-11-04T18:30:19.757Z,11.79
2018-11-04T18:32:50.992Z,11.79
2018-11-04T18:35:22.547Z,11.77
2018-11-04T18:37:53.854Z,11.75
2018-11-04T18:40:25.297Z,11.73
2018-11-04T18:42:56.971Z,11.74
2018-11-04T18:45:28.811Z,11.71
2018-11-04T18:48:00.886Z,11.65
2018-11-04T18:50:33.005Z,11.65
2018-11-04T18:53:04.371Z,11.61
2018-11-04T18:55:35.716Z,11.63
2018-11-04T18:58:07.624Z,11.60
2018-11-04T19:00:38.993Z,11.58
2018-11-04T19:03:12.414Z,11.60
2018-11-04T19:05:43.748Z,11.59
2018-11-04T19:08:15.408Z,11.56
2018-11-04T19:10:46.718Z,11.55
2018-11-04T19:13:18.387Z,11.56
2018-11-04T19:15:49.720Z,11.55
2018-11-04T19:18:26.621Z,11.50
2018-11-04T19:20:57.877Z,11.52
2018-11-04T19:23:29.205Z,11.51
2018-11-04T19:26:00.416Z,11.48
2018-11-04T19:28:31.634Z,11.42
2018-11-04T19:31:02.990Z,11.38
2018-11-04T19:33:34.263Z,11.35
2018-11-04T19:36:05.928Z,11.34
2018-11-04T19:38:36.990Z,11.33
2018-11-04T19:41:08.506Z,11.34
2018-11-04T19:43:39.762Z,11.26
2018-11-04T19:46:11.426Z,11.24
2018-11-04T19:48:56.483Z,11.20
2018-11-04T19:51:28.070Z,11.18
2018-11-04T19:53:59.458Z,11.17
2018-11-04T19:56:31.002Z,11.12
2018-11-04T19:59:02.288Z,10.99
2018-11-04T20:01:45.764Z,10.96
2018-11-04T20:04:18.074Z,10.95
2018-11-04T20:06:49.323Z,10.96
2018-11-04T20:09:20.694Z,10.95
2018-11-04T20:11:52.013Z,10.91
2018-11-04T20:14:23.915Z,10.90
2018-11-04T20:17:04.271Z,10.84
2018-11-04T20:19:52.816Z,10.70
2018-11-04T20:22:23.823Z,10.66
2018-11-04T20:25:31.616Z,10.61
2018-11-04T20:28:02.898Z,10.61
2018-11-04T20:30:34.129Z,10.58
2018-11-04T20:33:06.868Z,10.55
2018-11-04T20:35:38.543Z,10.58
2018-11-04T20:38:09.822Z,10.55
2018-11-04T20:40:58.116Z,10.52
2018-11-04T20:43:29.398Z,10.47
2018-11-04T20:46:00.570Z,10.43
2018-11-04T20:48:59.604Z,10.36
2018-11-04T20:51:30.958Z,10.32
2018-11-04T20:54:03.614Z,10.23
2018-11-04T20:56:52.033Z,10.04
2018-11-04T20:59:30.150Z,10.01
2018-11-04T21:02:01.429Z,9.97
2018-11-04T21:04:32.598Z,9.98
2018-11-04T21:07:08.339Z,9.97
2018-11-04T21:09:39.534Z,9.92
2018-11-04T21:12:10.740Z,9.80
2018-11-04T21:14:43.027Z,9.75
2018-11-04T21:17:14.132Z,9.55
2018-11-04T21:19:45.776Z,9.33
2018-11-04T21:22:20.212Z,9.15
2018-11-04T21:24:54.186Z,8.87
2018-11-04T21:27:28.496Z,8.77
2018-11-04T21:29:59.622Z,8.77
2018-11-04T21:32:41.090Z,8.84
2018-11-04T21:35:21.325Z,8.89
2018-11-04T21:37:52.563Z,8.98
2018-11-04T21:40:23.728Z,9.00
2018-11-04T21:42:55.080Z,9.01
2018-11-04T21:45:26.824Z,8.99
2018-11-04T21:47:58.111Z,8.75
2018-11-04T21:50:29.393Z,8.64
2018-11-04T21:53:02.638Z,8.64
2018-11-04T21:55:34.197Z,8.49
2018-11-04T21:58:11.525Z,8.29
2018-11-04T22:00:44.808Z,8.28
2018-11-04T22:03:16.450Z,8.30
2018-11-04T22:05:47.460Z,8.21
2018-11-04T22:08:18.928Z,8.15
2018-11-04T22:10:50.532Z,8.03
2018-11-04T22:13:21.791Z,7.93
2018-11-04T22:15:57.923Z,7.86
2018-11-04T22:18:29.407Z,7.89
2018-11-04T22:21:00.726Z,7.88
2018-11-04T22:23:31.907Z,7.82
2018-11-04T22:26:03.077Z,7.82
2018-11-04T22:28:35.293Z,7.87
2018-11-04T22:31:06.798Z,7.85
2018-11-04T22:33:37.917Z,7.76
2018-11-04T22:36:09.261Z,7.73
2018-11-04T22:38:41.071Z,7.76
2018-11-04T22:41:20.727Z,7.70
2018-11-04T22:43:52.256Z,7.63
2018-11-04T22:46:23.406Z,7.52
2018-11-04T22:49:13.815Z,7.45
2018-11-04T22:51:46.453Z,7.31
2018-11-04T22:54:17.649Z,7.31
2018-11-04T22:56:51.251Z,7.37
2018-11-04T22:59:22.449Z,7.37
2018-11-04T23:01:54.126Z,7.29
2018-11-04T23:04:42.751Z,7.31
2018-11-04T23:07:14.388Z,7.43
2018-11-04T23:09:46.080Z,7.41
2018-11-04T23:12:19.693Z,7.38
2018-11-04T23:14:50.918Z,7.30
2018-11-04T23:17:21.962Z,7.21
2018-11-04T23:19:53.303Z,7.14
2018-11-04T23:22:24.463Z,7.14
2018-11-04T23:24:55.762Z,7.15
2018-11-04T23:27:26.964Z,7.14
2018-11-04T23:30:01.221Z,7.10
2018-11-04T23:32:32.469Z,7.03
2018-11-04T23:35:03.680Z,7.00
2018-11-04T23:37:34.876Z,7.10
2018-11-04T23:40:06.133Z,7.13
2018-11-04T23:42:37.497Z,7.00
2018-11-04T23:45:10.505Z,6.90
2018-11-04T23:47:42.158Z,6.90
2018-11-04T23:50:17.852Z,7.00
2018-11-04T23:52:49.528Z,7.00
2018-11-04T23:55:21.015Z,6.93
2018-11-04T23:57:52.222Z,6.89
